This is the latest recevied weather packets stored in our database for station/object EFHK. If no packets are shown the sender has not sent any weather packets the latest 10 day(s).
| Time | Temp. | Humidity | Pressure | Rain* | Wind** | Luminosity | Snow |
|---|---|---|---|---|---|---|---|
| 1777760006 | 7.78° C | 75% | 1007 hPa | - | - | - | - |
| 1777759405 | 7.78° C | 75% | 1007 hPa | - | - | - | - |
| 1777758802 | 7.78° C | 75% | 1007 hPa | - | - | - | - |
| 1777758202 | 8.89° C | 70% | 1007 hPa | - | - | - | - |
| 1777757604 | 8.89° C | 70% | 1007 hPa | - | - | - | - |
| 1777757004 | 8.89° C | 70% | 1007 hPa | - | - | - | - |
| 1777756407 | 10° C | 66% | 1007 hPa | - | - | - | - |
| 1777755805 | 10° C | 66% | 1007 hPa | - | - | - | - |
| 1777755204 | 10° C | 66% | 1007 hPa | - | - | - | - |
| 1777754604 | 10.56° C | 62% | 1008 hPa | - | - | - | - |
| 1777754006 | 10.56° C | 62% | 1008 hPa | - | - | - | - |
| 1777753403 | 10.56° C | 62% | 1008 hPa | - | - | - | - |
| 1777752807 | 12.78° C | 54% | 1008 hPa | - | - | - | - |
| 1777752204 | 12.78° C | 54% | 1008 hPa | - | - | - | - |
| 1777751605 | 12.78° C | 54% | 1008 hPa | - | - | - | - |
| 1777751004 | 11.67° C | 58% | 1008 hPa | - | - | - | - |
| 1777750403 | 11.67° C | 58% | 1008 hPa | - | - | - | - |
| 1777749808 | 11.67° C | 58% | 1008 hPa | - | - | - | - |
| 1777749204 | 13.89° C | 50% | 1008 hPa | - | - | - | - |
| 1777748605 | 13.89° C | 50% | 1008 hPa | - | - | - | - |
| 1777748004 | 13.89° C | 50% | 1008 hPa | - | - | - | - |
| 1777747402 | 15° C | 47% | 1008 hPa | - | - | - | - |
| 1777746805 | 15° C | 47% | 1008 hPa | - | - | - | - |
| 1777746204 | 15° C | 47% | 1008 hPa | - | - | - | - |
| 1777745602 | 15.56° C | 38% | 1008 hPa | - | - | - | - |
* Rain since midnight (hover to see other rain measurements)
** Current wind speed in m/s (hover to see current wind gust speed)